Time;durP1;ratioP1;P1;durP2;ratioP2;P2;SDS_P1;SDS_P2;PMS_P1;PMS_P2;Temp;Humidity;BMP_temperature;BMP_pressure;BME280_temperature;BME280_humidity;BME280_pressure;Samples;Min_cycle;Max_cycle;Signal;HPM_P1;HPM_P2
2021/03/17 00:01:06;;;;;;;4.13;3.10;;;;;;;3.67;100.00;102449.50;5076936;28;20050;-63
2021/03/17 00:03:34;;;;;;;5.63;3.47;;;;;;;3.65;100.00;102456.66;5076954;28;20048;-64
2021/03/17 00:06:00;;;;;;;5.00;3.05;;;;;;;3.72;100.00;102458.19;5076556;28;20048;-62
2021/03/17 00:08:26;;;;;;;4.50;3.40;;;;;;;3.73;100.00;102467.94;5074681;28;20044;-64
2021/03/17 00:10:54;;;;;;;4.80;3.85;;;;;;;3.80;100.00;102464.16;5077209;28;20064;-63
2021/03/17 00:13:21;;;;;;;4.65;3.30;;;;;;;3.83;100.00;102474.69;5076368;28;20056;-62
2021/03/17 00:15:47;;;;;;;4.97;3.22;;;;;;;3.79;100.00;102472.19;5077261;28;20043;-63
2021/03/17 00:18:14;;;;;;;4.97;3.40;;;;;;;3.73;100.00;102470.59;5075087;28;20089;-62
2021/03/17 00:20:41;;;;;;;4.88;3.30;;;;;;;3.79;100.00;102474.84;5076403;28;20052;-62
2021/03/17 00:23:07;;;;;;;4.80;3.45;;;;;;;3.86;100.00;102479.91;5077695;28;20458;-63
2021/03/17 00:25:37;;;;;;;4.10;3.20;;;;;;;3.90;100.00;102471.81;5075889;28;20121;-63
2021/03/17 00:28:03;;;;;;;;;;;;;;;3.94;100.00;102476.09;5077364;28;20231;-63
2021/03/17 00:33:16;;;;;;;3.60;2.80;;;;;;;4.03;100.00;102474.00;5086400;22;20448;-62
2021/03/17 00:35:43;;;;;;;4.15;3.05;;;;;;;3.97;100.00;102479.53;5076554;28;20060;-64
2021/03/17 00:38:10;;;;;;;4.80;3.47;;;;;;;3.96;100.00;102482.25;5074439;28;20052;-62
2021/03/17 00:40:36;;;;;;;5.28;3.55;;;;;;;3.98;100.00;102480.41;5076124;28;20121;-62
2021/03/17 00:43:03;;;;;;;4.55;3.53;;;;;;;4.08;100.00;102471.19;5076712;28;20390;-63
2021/03/17 00:45:29;;;;;;;4.28;3.33;;;;;;;4.04;100.00;102474.88;5077783;28;20048;-62
2021/03/17 00:47:55;;;;;;;4.50;3.22;;;;;;;4.06;100.00;102466.81;5075851;28;20052;-63
2021/03/17 00:50:22;;;;;;;4.05;3.30;;;;;;;3.90;100.00;102478.03;5074560;28;20582;-62
2021/03/17 00:52:49;;;;;;;4.05;2.92;;;;;;;4.02;100.00;102474.06;5077100;28;20056;-64
2021/03/17 00:55:15;;;;;;;6.32;3.30;;;;;;;4.04;100.00;102480.19;5075439;28;20044;-61
2021/03/17 00:57:41;;;;;;;3.72;3.15;;;;;;;3.99;100.00;102476.81;5076133;28;20101;-62
2021/03/17 01:00:09;;;;;;;4.50;2.70;;;;;;;4.01;100.00;102473.16;5074683;28;20404;-62
2021/03/17 01:02:35;;;;;;;4.13;2.97;;;;;;;4.05;100.00;102479.28;5076783;28;20151;-62
2021/03/17 01:05:01;;;;;;;3.72;2.90;;;;;;;4.12;100.00;102480.81;5075489;28;20067;-64
2021/03/17 01:07:27;;;;;;;4.43;3.00;;;;;;;4.06;100.00;102478.34;5074772;28;20405;-62
2021/03/17 01:09:54;;;;;;;4.10;2.95;;;;;;;4.03;100.00;102486.44;5075704;28;20141;-62
2021/03/17 01:12:20;;;;;;;4.95;3.33;;;;;;;4.07;100.00;102484.56;5075815;28;20057;-61
2021/03/17 01:14:46;;;;;;;4.00;3.30;;;;;;;4.02;100.00;102482.06;5076753;28;20053;-63
2021/03/17 01:17:12;;;;;;;4.53;3.22;;;;;;;4.04;100.00;102485.53;5074826;28;20044;-62
2021/03/17 01:19:38;;;;;;;5.53;3.60;;;;;;;4.02;100.00;102487.38;5075802;28;20049;-62
2021/03/17 01:22:05;;;;;;;5.50;4.03;;;;;;;4.01;100.00;102485.63;5075732;28;20055;-62
2021/03/17 01:24:31;;;;;;;5.70;3.92;;;;;;;4.02;100.00;102492.72;5076655;28;20052;-62
2021/03/17 01:26:58;;;;;;;5.25;3.80;;;;;;;4.00;100.00;102497.22;5074260;28;20066;-62
2021/03/17 01:29:24;;;;;;;5.97;3.90;;;;;;;4.01;100.00;102489.16;5073628;28;20508;-63
2021/03/17 01:31:50;;;;;;;4.97;3.75;;;;;;;4.11;100.00;102496.81;5076529;28;20123;-62
2021/03/17 01:34:16;;;;;;;5.03;3.80;;;;;;;4.03;100.00;102498.00;5074861;28;20110;-62
2021/03/17 01:36:42;;;;;;;6.40;4.53;;;;;;;4.04;100.00;102491.72;5076124;28;20412;-62
2021/03/17 01:39:08;;;;;;;5.55;4.18;;;;;;;4.09;100.00;102494.22;5075477;28;20055;-62
2021/03/17 01:41:35;;;;;;;5.60;3.78;;;;;;;4.20;100.00;102496.53;5076212;28;20098;-62
2021/03/17 01:44:02;;;;;;;4.07;3.28;;;;;;;4.19;100.00;102500.97;5077107;28;20041;-63
2021/03/17 01:46:28;;;;;;;4.05;2.95;;;;;;;4.21;100.00;102509.78;5075639;28;20051;-62
2021/03/17 01:48:54;;;;;;;5.78;3.00;;;;;;;4.13;100.00;102510.97;5075359;28;20409;-61
2021/03/17 01:51:20;;;;;;;5.55;3.10;;;;;;;4.13;100.00;102509.16;5074798;28;20059;-61
2021/03/17 01:53:47;;;;;;;4.00;3.10;;;;;;;4.07;100.00;102495.22;5075687;28;20059;-62
2021/03/17 01:56:13;;;;;;;3.88;2.85;;;;;;;4.08;100.00;102499.59;5075959;28;20657;-60
2021/03/17 01:58:40;;;;;;;4.85;2.67;;;;;;;4.07;100.00;102504.06;5078217;28;20110;-62
2021/03/17 02:01:07;;;;;;;3.78;2.83;;;;;;;4.07;100.00;102503.22;5079969;28;20413;-61
2021/03/17 02:03:33;;;;;;;4.28;3.20;;;;;;;4.12;100.00;102502.13;5079264;28;20043;-61
2021/03/17 02:05:59;;;;;;;4.22;3.33;;;;;;;4.06;100.00;102491.66;5079844;28;20048;-61
2021/03/17 02:08:31;;;;;;;4.75;3.65;;;;;;;4.12;100.00;102496.78;5078091;28;20098;-61
2021/03/17 02:10:57;;;;;;;6.28;4.00;;;;;;;4.09;100.00;102494.22;5079605;28;20055;-60
2021/03/17 02:13:37;;;;;;;6.05;4.18;;;;;;;4.01;100.00;102485.63;5079062;28;20489;-61
2021/03/17 02:16:12;;;;;;;6.05;3.90;;;;;;;4.04;100.00;102486.38;5079906;28;20044;-61
2021/03/17 02:18:47;;;;;;;5.85;4.32;;;;;;;4.08;100.00;102480.94;5078139;28;20056;-62
2021/03/17 02:21:42;;;;;;;7.88;5.07;;;;;;;4.11;100.00;102481.72;5079077;28;20131;-62
2021/03/17 02:24:17;;;;;;;6.00;4.63;;;;;;;4.10;100.00;102479.97;5077590;28;20505;-62
2021/03/17 02:27:02;;;;;;;7.53;4.63;;;;;;;4.19;100.00;102484.09;5079521;28;20926;-62
2021/03/17 02:29:58;;;;;;;8.05;4.65;;;;;;;4.11;100.00;102481.72;5078722;28;20036;-61
2021/03/17 02:32:47;;;;;;;6.32;4.40;;;;;;;4.07;100.00;102474.75;5077246;28;20493;-62
2021/03/17 02:35:14;;;;;;;6.85;4.65;;;;;;;4.04;100.00;102464.22;5078684;28;20071;-63
2021/03/17 02:37:44;;;;;;;6.05;4.50;;;;;;;4.16;100.00;102474.41;5078193;28;20059;-63
2021/03/17 02:40:13;;;;;;;;;;;;;;;4.13;100.00;102469.19;5077800;28;20139;-62
2021/03/17 02:42:45;;;;;;;8.93;4.93;;;;;;;4.21;100.00;102468.91;5078622;28;19920;-61
2021/03/17 02:45:15;;;;;;;5.78;4.28;;;;;;;4.20;100.00;102465.41;5078674;28;20056;-63
2021/03/17 02:47:46;;;;;;;9.25;4.55;;;;;;;4.15;100.00;102456.72;5076964;28;20101;-63
2021/03/17 02:50:14;;;;;;;7.30;4.70;;;;;;;4.13;100.00;102457.69;5077931;28;20051;-62
2021/03/17 02:52:44;;;;;;;6.28;4.05;;;;;;;4.12;100.00;102451.50;5078278;28;20417;-62
2021/03/17 02:55:12;;;;;;;5.85;3.78;;;;;;;4.11;100.00;102460.41;5078319;28;20052;-64
2021/03/17 02:57:42;;;;;;;5.55;3.95;;;;;;;4.09;100.00;102462.22;5076138;28;20070;-62
2021/03/17 03:00:11;;;;;;;4.22;3.20;;;;;;;4.14;100.00;102460.28;5078746;28;20044;-63
2021/03/17 03:02:39;;;;;;;7.18;3.13;;;;;;;4.12;100.00;102450.59;5078786;28;20059;-62
2021/03/17 03:05:08;;;;;;;4.47;2.88;;;;;;;4.15;100.00;102443.38;5077686;28;20493;-63
2021/03/17 03:07:35;;;;;;;4.40;3.20;;;;;;;4.12;100.00;102440.84;5074922;28;20079;-62
2021/03/17 03:10:05;;;;;;;4.00;2.97;;;;;;;4.11;100.00;102444.41;5078437;28;20117;-62
2021/03/17 03:12:33;;;;;;;4.65;2.80;;;;;;;4.16;100.00;102445.09;5079068;28;20048;-62
2021/03/17 03:14:59;;;;;;;3.92;2.38;;;;;;;4.14;100.00;102449.63;5078694;28;20067;-63
2021/03/17 03:17:26;;;;;;;3.72;2.30;;;;;;;4.21;100.00;102453.81;5076757;28;20064;-62
2021/03/17 03:19:54;;;;;;;4.35;2.85;;;;;;;4.23;100.00;102450.25;5077356;28;20048;-62
2021/03/17 03:22:21;;;;;;;4.18;2.40;;;;;;;4.30;100.00;102457.06;5077655;28;20052;-63
2021/03/17 03:24:49;;;;;;;4.38;1.90;;;;;;;4.23;100.00;102452.91;5078364;28;20059;-62
2021/03/17 03:27:16;;;;;;;2.92;1.67;;;;;;;4.30;100.00;102460.63;5075845;28;20063;-62
2021/03/17 03:29:43;;;;;;;4.38;2.25;;;;;;;4.11;100.00;102468.41;5078662;28;20413;-62
2021/03/17 03:32:09;;;;;;;4.05;1.80;;;;;;;4.21;100.00;102476.91;5077305;28;20116;-63
2021/03/17 03:34:36;;;;;;;2.90;1.92;;;;;;;4.19;100.00;102479.63;5076614;28;20052;-62
2021/03/17 03:37:03;;;;;;;2.10;1.50;;;;;;;4.18;100.00;102474.38;5076133;28;20532;-62
2021/03/17 03:39:28;;;;;;;3.63;1.92;;;;;;;4.18;100.00;102471.69;5078305;28;20400;-62
2021/03/17 03:41:55;;;;;;;3.08;1.90;;;;;;;4.18;100.00;102475.25;5078244;28;20060;-63
2021/03/17 03:44:22;;;;;;;3.88;1.80;;;;;;;4.17;100.00;102481.50;5076995;28;20086;-64
2021/03/17 03:46:48;;;;;;;2.92;1.80;;;;;;;4.25;100.00;102483.03;5077435;28;20436;-64
2021/03/17 03:49:14;;;;;;;2.75;1.90;;;;;;;4.24;100.00;102478.59;5076133;28;20050;-63
2021/03/17 03:51:44;;;;;;;2.80;2.00;;;;;;;4.24;100.00;102476.84;5076900;28;20066;-64
2021/03/17 03:54:19;;;;;;;2.50;1.88;;;;;;;4.23;100.00;102477.75;5077343;28;20056;-63
2021/03/17 03:56:51;;;;;;;2.75;1.65;;;;;;;4.19;100.00;102476.97;5077232;28;20051;-62
2021/03/17 03:59:23;;;;;;;4.78;2.00;;;;;;;4.20;100.00;102476.06;5075804;28;20044;-64
2021/03/17 04:01:53;;;;;;;2.88;1.42;;;;;;;4.21;100.00;102472.47;5077753;28;20055;-64
2021/03/17 04:04:22;;;;;;;2.70;1.60;;;;;;;4.22;100.00;102478.66;5076617;28;20072;-62
2021/03/17 04:06:50;;;;;;;3.92;1.48;;;;;;;4.26;100.00;102479.44;5077125;28;20075;-63
2021/03/17 04:09:20;;;;;;;2.55;1.30;;;;;;;4.26;100.00;102482.97;5074775;28;20055;-64
2021/03/17 04:11:48;;;;;;;4.03;1.40;;;;;;;4.26;100.00;102484.78;5076318;28;20051;-62
2021/03/17 04:14:18;;;;;;;3.47;1.38;;;;;;;4.30;100.00;102492.59;5075711;28;20055;-62
2021/03/17 04:16:46;;;;;;;4.43;1.60;;;;;;;4.24;100.00;102498.16;5076800;28;20154;-62
2021/03/17 04:19:15;;;;;;;5.73;1.43;;;;;;;4.26;100.00;102506.97;5074524;28;20060;-61
2021/03/17 04:21:42;;;;;;;2.88;1.70;;;;;;;4.13;100.00;102500.31;5075842;28;20774;-62
2021/03/17 04:24:09;;;;;;;2.15;1.50;;;;;;;4.18;100.00;102496.56;5076667;28;20568;-62
2021/03/17 04:26:36;;;;;;;3.63;1.73;;;;;;;4.21;100.00;102504.47;5076197;28;20040;-62
2021/03/17 04:29:04;;;;;;;3.25;1.73;;;;;;;4.18;100.00;102504.56;5076335;28;20063;-63
2021/03/17 04:31:31;;;;;;;2.50;1.77;;;;;;;4.24;100.00;102507.94;5076559;28;20049;-63
2021/03/17 04:33:58;;;;;;;3.28;1.70;;;;;;;4.21;100.00;102498.22;5076543;28;20056;-62
2021/03/17 04:36:26;;;;;;;4.30;1.88;;;;;;;4.23;100.00;102500.88;5075653;28;20040;-62
2021/03/17 04:38:53;;;;;;;4.93;1.77;;;;;;;4.19;100.00;102503.63;5077252;28;20048;-62
2021/03/17 04:41:20;;;;;;;4.43;1.95;;;;;;;4.22;100.00;102521.31;5076237;28;20056;-62
2021/03/17 04:43:47;;;;;;;4.97;1.75;;;;;;;4.16;100.00;102517.06;5076796;28;20051;-63
2021/03/17 04:46:15;;;;;;;4.20;1.85;;;;;;;4.19;100.00;102522.28;5075555;28;20055;-63
2021/03/17 04:48:43;;;;;;;3.80;1.70;;;;;;;4.13;100.00;102517.16;5075761;28;20047;-63
2021/03/17 04:51:10;;;;;;;3.92;2.20;;;;;;;4.10;100.00;102522.59;5076026;28;20048;-62
2021/03/17 04:53:37;;;;;;;3.80;2.15;;;;;;;4.25;100.00;102520.34;5076053;28;20590;-62
2021/03/17 04:56:04;;;;;;;3.70;2.25;;;;;;;4.25;100.00;102525.66;5076138;28;20047;-62
2021/03/17 04:58:32;;;;;;;3.17;2.10;;;;;;;4.13;100.00;102518.97;5074685;28;20138;-62
2021/03/17 05:00:59;;;;;;;4.10;2.10;;;;;;;4.26;100.00;102519.44;5077493;28;20048;-62
2021/03/17 05:03:26;;;;;;;3.10;2.28;;;;;;;4.16;100.00;102522.38;5075253;28;20045;-62
2021/03/17 05:05:55;;;;;;;5.97;2.80;;;;;;;4.06;100.00;102520.97;5076702;28;20127;-63
2021/03/17 05:08:23;;;;;;;4.43;2.63;;;;;;;4.10;100.00;102522.59;5075161;28;20052;-63
2021/03/17 05:13:21;;;;;;;5.88;3.63;;;;;;;4.07;100.00;102517.38;4991604;22;20193;-63
2021/03/17 05:15:48;;;;;;;5.72;3.10;;;;;;;4.06;100.00;102526.28;5072457;28;20053;-62
2021/03/17 05:18:17;;;;;;;7.72;3.55;;;;;;;4.05;100.00;102537.91;5074548;28;20048;-64
2021/03/17 05:20:46;;;;;;;5.40;3.30;;;;;;;4.07;100.00;102529.84;5075870;28;20451;-62
2021/03/17 05:23:13;;;;;;;8.88;3.40;;;;;;;4.04;100.00;102534.34;5076789;28;20193;-63
2021/03/17 05:25:41;;;;;;;5.85;2.95;;;;;;;4.26;100.00;102533.59;5075925;28;20048;-64
2021/03/17 05:28:07;;;;;;;6.53;3.35;;;;;;;4.17;100.00;102524.13;5075430;28;20386;-62
2021/03/17 05:30:36;;;;;;;7.38;3.50;;;;;;;4.13;100.00;102529.63;5076546;28;20113;-63
2021/03/17 05:33:05;;;;;;;8.05;3.50;;;;;;;4.13;100.00;102521.63;5080838;28;20093;-63
2021/03/17 05:35:31;;;;;;;4.72;3.25;;;;;;;4.11;100.00;102521.69;5079372;28;20078;-64
2021/03/17 05:37:57;;;;;;;6.65;3.15;;;;;;;4.06;100.00;102526.28;5079012;28;20059;-62
2021/03/17 05:40:23;;;;;;;7.72;3.45;;;;;;;4.09;100.00;102515.53;5079582;28;20249;-62
2021/03/17 05:42:50;;;;;;;5.45;3.80;;;;;;;4.11;100.00;102518.13;5081283;28;20080;-62
2021/03/17 05:45:18;;;;;;;6.80;3.13;;;;;;;4.13;100.00;102532.28;5080069;28;20044;-63
2021/03/17 05:47:45;;;;;;;4.32;2.63;;;;;;;4.12;100.00;102531.44;5078967;28;20060;-62
2021/03/17 05:50:14;;;;;;;3.70;2.55;;;;;;;4.13;100.00;102522.50;5079592;28;20053;-63
2021/03/17 05:52:40;;;;;;;5.10;2.28;;;;;;;4.05;100.00;102519.25;5080310;28;20504;-62
2021/03/17 05:55:08;;;;;;;7.28;2.10;;;;;;;4.03;100.00;102526.41;5079198;28;20580;-63
2021/03/17 05:57:35;;;;;;;6.10;2.55;;;;;;;4.06;100.00;102530.75;5079828;28;20127;-62
2021/03/17 06:00:03;;;;;;;9.02;2.20;;;;;;;3.97;100.00;102538.13;5080797;28;20045;-64
2021/03/17 06:02:29;;;;;;;4.80;2.80;;;;;;;3.99;100.00;102532.75;5079768;28;20511;-62
2021/03/17 06:04:56;;;;;;;7.13;2.53;;;;;;;3.88;100.00;102524.28;5079628;28;20441;-63
2021/03/17 06:07:24;;;;;;;4.20;2.05;;;;;;;3.89;100.00;102531.31;5078087;28;20048;-62
2021/03/17 06:09:52;;;;;;;4.63;2.17;;;;;;;3.86;100.00;102530.50;5079950;28;20539;-62
2021/03/17 06:12:21;;;;;;;3.45;2.08;;;;;;;3.87;100.00;102526.03;5076949;28;20080;-62
2021/03/17 06:14:49;;;;;;;5.10;2.20;;;;;;;3.77;100.00;102528.16;5058192;28;20060;-63
2021/03/17 06:17:20;;;;;;;3.10;2.08;;;;;;;3.81;100.00;102532.47;5057037;28;20060;-62
2021/03/17 06:19:49;;;;;;;3.88;2.05;;;;;;;3.91;100.00;102542.81;5059086;28;20512;-63
2021/03/17 06:22:16;;;;;;;5.40;2.00;;;;;;;3.98;100.00;102536.38;5111133;22;20058;-64
2021/03/17 06:24:42;;;;;;;5.88;2.38;;;;;;;4.00;100.00;102550.50;5059488;28;20053;-63
2021/03/17 06:27:12;;;;;;;3.45;2.13;;;;;;;4.00;100.00;102535.38;5055171;28;20060;-63
2021/03/17 06:29:39;;;;;;;5.40;2.30;;;;;;;4.09;100.00;102542.19;5057159;28;20104;-64
2021/03/17 06:32:06;;;;;;;6.65;2.40;;;;;;;4.08;100.00;102535.13;5055955;28;20883;-63
2021/03/17 06:34:33;;;;;;;2.83;2.00;;;;;;;4.07;100.00;102546.69;5055673;28;20056;-64
2021/03/17 06:36:59;;;;;;;3.10;2.28;;;;;;;4.16;100.00;102554.38;5055018;28;20489;-63
2021/03/17 06:39:34;;;;;;;3.10;1.90;;;;;;;4.24;100.00;102550.56;5054326;28;20110;-64
2021/03/17 06:42:00;;;;;;;4.30;2.10;;;;;;;4.38;100.00;102550.97;5057710;28;20044;-61
2021/03/17 06:44:28;;;;;;;2.75;2.00;;;;;;;4.42;100.00;102541.94;5055137;28;20048;-62
2021/03/17 06:47:14;;;;;;;4.07;2.22;;;;;;;4.42;100.00;102544.59;5057359;28;20052;-62
2021/03/17 06:49:43;;;;;;;5.13;2.10;;;;;;;4.51;100.00;102549.59;5036108;28;20048;-62
2021/03/17 06:52:33;;;;;;;5.55;1.67;;;;;;;4.44;100.00;102548.06;5053472;28;20041;-62
2021/03/17 06:55:23;;;;;;;2.85;1.63;;;;;;;4.34;100.00;102560.00;5056652;28;20576;-63
2021/03/17 06:57:51;;;;;;;4.82;1.50;;;;;;;4.35;100.00;102559.06;5041321;28;20052;-63
2021/03/17 07:00:30;;;;;;;3.92;1.90;;;;;;;4.32;100.00;102564.50;5056562;28;20512;-62
2021/03/17 07:02:58;;;;;;;2.80;1.38;;;;;;;4.27;100.00;102566.44;5057328;28;20437;-61
2021/03/17 07:05:40;;;;;;;3.88;1.58;;;;;;;4.11;100.00;102577.66;5054686;28;20082;-62
2021/03/17 07:08:08;;;;;;;2.58;1.38;;;;;;;4.07;100.00;102564.50;5056139;28;20098;-62
2021/03/17 07:10:38;;;;;;;2.43;1.20;;;;;;;4.03;100.00;102569.94;5058106;28;20095;-61
2021/03/17 07:13:05;;;;;;;5.57;1.55;;;;;;;4.00;100.00;102587.78;5057027;28;20337;-62
2021/03/17 07:15:33;;;;;;;3.45;1.92;;;;;;;4.03;100.00;102585.91;5058821;28;20059;-61
2021/03/17 07:18:19;;;;;;;4.45;1.35;;;;;;;4.07;100.00;102594.66;5057486;28;20052;-62
2021/03/17 07:20:48;;;;;;;3.90;1.40;;;;;;;4.10;100.00;102588.38;5052629;28;20090;-61
2021/03/17 07:23:33;;;;;;;;;;;;;;;4.11;100.00;102603.41;5080667;28;20471;-61
2021/03/17 07:26:07;;;;;;;3.28;1.63;;;;;;;4.14;100.00;102587.34;5098366;28;20018;-62
2021/03/17 07:29:13;;;;;;;6.05;1.95;;;;;;;4.16;100.00;102591.69;5097350;28;20048;-61
2021/03/17 07:31:44;;;;;;;5.20;2.22;;;;;;;4.26;100.00;102596.72;5099091;28;20496;-62
2021/03/17 07:34:17;;;;;;;3.70;1.50;;;;;;;4.36;100.00;102592.81;5097116;28;20052;-63
2021/03/17 07:36:46;;;;;;;3.10;1.40;;;;;;;4.43;100.00;102607.69;5098726;28;20562;-61
2021/03/17 07:39:13;;;;;;;;;;;;;;;4.48;100.00;102600.38;5097750;28;20178;-64
2021/03/17 07:41:40;;;;;;;7.03;1.90;;;;;;;4.60;100.00;102595.53;5098632;28;19919;-62
2021/03/17 07:44:09;;;;;;;3.80;1.20;;;;;;;4.82;100.00;102591.16;5098362;28;20055;-62
2021/03/17 07:46:37;;;;;;;3.20;1.35;;;;;;;4.80;100.00;102586.81;5098428;28;20412;-64
2021/03/17 07:51:30;;;;;;;3.97;1.30;;;;;;;4.95;100.00;102596.03;5104921;22;20088;-63
2021/03/17 07:53:59;;;;;;;2.28;1.05;;;;;;;5.07;100.00;102587.59;5098226;28;20048;-62
2021/03/17 07:56:25;;;;;;;3.53;1.20;;;;;;;5.19;100.00;102589.78;5095164;28;20047;-63
2021/03/17 07:58:53;;;;;;;5.47;1.15;;;;;;;5.13;100.00;102584.69;5095619;28;20386;-62
2021/03/17 08:01:20;;;;;;;2.67;1.10;;;;;;;5.33;100.00;102583.03;5097158;28;20598;-61
2021/03/17 08:03:47;;;;;;;4.55;1.38;;;;;;;5.48;100.00;102594.91;5097941;28;20063;-61
2021/03/17 08:06:18;;;;;;;4.72;1.30;;;;;;;5.54;100.00;102592.88;5087502;28;20052;-62
2021/03/17 08:08:44;;;;;;;6.25;1.38;;;;;;;5.43;100.00;102595.09;5098055;28;20112;-62
2021/03/17 08:11:16;;;;;;;4.53;1.40;;;;;;;5.56;100.00;102593.69;5080607;28;20047;-62
2021/03/17 08:13:44;;;;;;;5.10;1.08;;;;;;;5.31;100.00;102603.59;5089362;28;20052;-62
2021/03/17 08:16:13;;;;;;;5.47;1.25;;;;;;;5.40;100.00;102597.91;5096674;28;20095;-62
2021/03/17 08:18:41;;;;;;;6.53;1.17;;;;;;;5.42;100.00;102609.41;5097966;28;20052;-63
2021/03/17 08:21:07;;;;;;;9.27;1.52;;;;;;;5.40;100.00;102605.91;5096430;28;20044;-64
2021/03/17 08:23:41;;;;;;;5.90;1.30;;;;;;;5.45;100.00;102601.28;5097778;28;20123;-62
2021/03/17 08:26:09;;;;;;;6.43;1.42;;;;;;;5.44;100.00;102610.19;5097984;28;20503;-62
2021/03/17 08:28:52;;;;;;;3.22;0.95;;;;;;;5.23;100.00;102611.91;5096376;28;20323;-62
2021/03/17 08:31:53;;;;;;;3.90;1.20;;;;;;;5.35;100.00;102615.91;5094222;28;20067;-61
2021/03/17 08:34:27;;;;;;;5.13;1.27;;;;;;;5.35;100.00;102621.25;5095724;28;20055;-61
2021/03/17 08:36:55;;;;;;;7.18;2.00;;;;;;;5.22;100.00;102612.81;5097139;28;20093;-63
2021/03/17 08:39:48;;;;;;;5.90;1.67;;;;;;;4.72;100.00;102627.97;5093619;28;20167;-63
2021/03/17 08:42:26;;;;;;;6.05;1.50;;;;;;;4.57;100.00;102628.50;5097025;28;20044;-62
2021/03/17 08:44:55;;;;;;;3.28;1.60;;;;;;;4.71;100.00;102615.56;5098654;28;20097;-62
2021/03/17 08:47:27;;;;;;;7.63;1.50;;;;;;;4.76;100.00;102633.22;5089938;28;20051;-61
2021/03/17 08:49:54;;;;;;;3.70;1.60;;;;;;;4.79;100.00;102644.63;5099458;28;20055;-63
2021/03/17 08:52:22;;;;;;;3.92;1.60;;;;;;;4.93;100.00;102636.13;5098317;28;20051;-62
2021/03/17 08:55:07;;;;;;;2.50;1.27;;;;;;;5.06;100.00;102639.22;5091899;28;20063;-64
2021/03/17 08:58:11;;;;;;;3.92;1.60;;;;;;;5.41;100.00;102629.00;5097239;28;20055;-65
2021/03/17 09:01:02;;;;;;;7.22;2.28;;;;;;;5.62;100.00;102624.63;5086230;28;20044;-62
2021/03/17 09:03:46;;;;;;;5.63;1.50;;;;;;;5.65;100.00;102623.66;5097781;28;20113;-62
2021/03/17 09:06:24;;;;;;;3.88;1.30;;;;;;;5.37;100.00;102630.06;5098639;28;20513;-62
2021/03/17 09:08:59;;;;;;;4.63;1.08;;;;;;;5.50;100.00;102623.31;5091273;28;20615;-62
2021/03/17 09:11:59;;;;;;;6.38;1.27;;;;;;;5.42;100.00;102628.97;5091871;28;20048;-65
2021/03/17 09:14:32;;;;;;;12.18;1.67;;;;;;;5.61;100.00;102628.25;5099415;28;20043;-62
2021/03/17 09:17:25;;;;;;;5.18;1.25;;;;;;;5.84;100.00;102623.78;5090536;28;20056;-62
2021/03/17 09:20:14;;;;;;;5.70;1.48;;;;;;;6.00;100.00;102626.75;5097598;28;20400;-62
2021/03/17 09:22:46;;;;;;;5.63;1.63;;;;;;;6.20;100.00;102620.56;5098580;28;20048;-62
2021/03/17 09:27:44;;;;;;;5.00;1.90;;;;;;;6.31;100.00;102621.84;5100881;22;20037;-62
2021/03/17 09:30:11;;;;;;;5.68;1.40;;;;;;;6.26;100.00;102628.34;5077888;28;20059;-63
2021/03/17 09:32:38;;;;;;;6.18;1.60;;;;;;;6.44;100.00;102629.34;5077166;28;20052;-62
2021/03/17 09:35:05;;;;;;;6.25;1.70;;;;;;;6.18;100.00;102622.44;5076654;28;20121;-62
2021/03/17 09:37:31;;;;;;;8.82;2.15;;;;;;;6.12;100.00;102623.56;5077439;28;20424;-62
2021/03/17 09:39:57;;;;;;;6.90;1.75;;;;;;;6.02;100.00;102616.84;5076616;28;20052;-62
2021/03/17 09:42:23;;;;;;;5.45;1.77;;;;;;;5.99;100.00;102622.31;5078008;28;20044;-62
2021/03/17 09:44:55;;;;;;;8.70;2.13;;;;;;;5.97;100.00;102630.41;5077117;28;20375;-63
2021/03/17 09:47:26;;;;;;;7.43;1.80;;;;;;;5.73;100.00;102629.56;5076341;28;20056;-62
2021/03/17 09:49:54;;;;;;;9.07;1.70;;;;;;;5.68;100.00;102634.22;5074960;28;20052;-62
2021/03/17 09:52:20;;;;;;;5.68;1.48;;;;;;;5.74;100.00;102624.16;5073676;28;20044;-63
2021/03/17 09:54:46;;;;;;;7.70;1.40;;;;;;;5.61;100.00;102638.94;5075742;28;20071;-63
2021/03/17 09:57:12;;;;;;;8.50;1.70;;;;;;;5.78;100.00;102633.78;5076203;28;20135;-63
2021/03/17 09:59:39;;;;;;;8.55;1.63;;;;;;;5.78;100.00;102636.44;5075887;28;20500;-63
2021/03/17 10:02:09;;;;;;;11.65;2.03;;;;;;;5.88;100.00;102638.78;5074698;28;20064;-63
2021/03/17 10:04:38;;;;;;;11.55;1.95;;;;;;;5.70;100.00;102632.38;5077413;28;20468;-62
2021/03/17 10:07:06;;;;;;;;;;;;;;;5.54;100.00;102638.28;5076411;28;20095;-63
2021/03/17 10:09:34;;;;;;;12.00;2.20;;;;;;;5.63;100.00;102614.84;5075725;28;19928;-62
2021/03/17 10:12:03;;;;;;;11.75;2.08;;;;;;;5.65;100.00;102619.16;5075281;28;20048;-61
2021/03/17 10:14:29;;;;;;;9.50;2.17;;;;;;;5.66;100.00;102617.38;5076760;28;20094;-62
2021/03/17 10:16:56;;;;;;;10.35;2.75;;;;;;;5.53;100.00;102615.19;5078132;28;20381;-62
2021/03/17 10:19:22;;;;;;;11.38;1.83;;;;;;;5.72;100.00;102611.78;5078422;28;20053;-62
2021/03/17 10:21:53;;;;;;;7.03;1.90;;;;;;;5.83;100.00;102616.69;5077323;28;20048;-63
2021/03/17 10:24:33;;;;;;;8.40;1.60;;;;;;;5.90;100.00;102605.72;5080006;28;20048;-63
2021/03/17 10:27:01;;;;;;;6.40;1.80;;;;;;;6.20;100.00;102616.09;5078187;28;20045;-63
2021/03/17 10:29:27;;;;;;;9.25;1.50;;;;;;;6.07;100.00;102614.88;5077531;28;20052;-63
2021/03/17 10:31:55;;;;;;;7.47;1.75;;;;;;;6.03;100.00;102608.75;5078872;28;20087;-63
2021/03/17 10:34:25;;;;;;;5.18;1.63;;;;;;;6.23;100.00;102613.28;5081217;28;20132;-63
2021/03/17 10:36:52;;;;;;;10.50;2.25;;;;;;;6.20;100.00;102605.41;5079221;28;20545;-63
2021/03/17 10:39:18;;;;;;;8.18;1.88;;;;;;;6.27;100.00;102616.69;5079802;28;20090;-63
2021/03/17 10:41:46;;;;;;;7.82;2.08;;;;;;;6.21;100.00;102617.81;5082243;28;20060;-62
2021/03/17 10:44:15;;;;;;;9.23;1.83;;;;;;;6.28;100.00;102611.28;5081408;28;20070;-62
2021/03/17 10:47:01;;;;;;;6.18;1.73;;;;;;;6.45;100.00;102609.72;5080158;28;20053;-63
2021/03/17 10:49:28;;;;;;;10.20;1.65;;;;;;;6.29;100.00;102604.13;5081050;28;20044;-63
2021/03/17 10:51:55;;;;;;;8.98;1.90;;;;;;;6.42;100.00;102604.47;5080515;28;20056;-63
2021/03/17 10:54:33;;;;;;;7.07;2.00;;;;;;;6.23;100.00;102601.72;5079808;28;20165;-63
2021/03/17 10:57:01;;;;;;;6.78;1.67;;;;;;;6.13;100.00;102607.44;5079486;28;20496;-62
2021/03/17 10:59:30;;;;;;;6.50;1.85;;;;;;;6.03;100.00;102602.56;5080849;28;20127;-63
2021/03/17 11:02:15;;;;;;;6.28;1.38;;;;;;;6.12;100.00;102605.72;5079699;28;20067;-62
2021/03/17 11:05:07;;;;;;;7.07;1.70;;;;;;;5.93;100.00;102608.25;5079618;28;20108;-62
2021/03/17 11:07:56;;;;;;;3.75;1.33;;;;;;;5.81;100.00;102608.75;5078865;28;20059;-63
2021/03/17 11:10:35;;;;;;;3.22;0.90;;;;;;;6.08;100.00;102605.91;5080341;28;20060;-63
2021/03/17 11:13:23;;;;;;;3.53;1.15;;;;;;;5.94;100.00;102614.47;5077395;28;20063;-63
2021/03/17 11:15:51;;;;;;;4.60;1.40;;;;;;;5.79;100.00;102613.28;5079922;28;20040;-62
2021/03/17 11:18:20;;;;;;;3.05;1.27;;;;;;;6.02;100.00;102616.84;5078902;28;20479;-63
2021/03/17 11:20:46;;;;;;;6.57;1.48;;;;;;;6.07;100.00;102605.03;5078950;28;20469;-62
2021/03/17 11:23:15;;;;;;;6.43;1.27;;;;;;;6.26;100.00;102607.81;5078732;28;20560;-63
2021/03/17 11:25:41;;;;;;;;;;;;;;;6.50;100.00;102597.00;5080860;28;20127;-64
2021/03/17 11:28:12;;;;;;;3.42;1.13;;;;;;;6.60;100.00;102601.00;5079260;28;19921;-62
2021/03/17 11:30:43;;;;;;;5.95;1.40;;;;;;;6.58;100.00;102594.88;5079932;28;20055;-63
2021/03/17 11:33:11;;;;;;;6.25;1.58;;;;;;;6.35;100.00;102598.53;5080536;28;20061;-63
2021/03/17 11:35:37;;;;;;;3.50;1.20;;;;;;;6.58;100.00;102602.88;5078994;28;20045;-62
2021/03/17 11:38:03;;;;;;;5.47;1.50;;;;;;;6.71;100.00;102603.19;5078160;28;20072;-63
2021/03/17 11:40:29;;;;;;;4.28;1.42;;;;;;;6.56;100.00;102607.41;5078245;28;20068;-63
2021/03/17 11:43:03;;;;;;;2.75;1.20;;;;;;;6.76;100.00;102603.88;5080952;28;20105;-63
2021/03/17 11:45:30;;;;;;;3.30;1.17;;;;;;;6.87;100.00;102600.69;5079890;28;20482;-63
2021/03/17 11:47:56;;;;;;;2.72;1.20;;;;;;;6.85;100.00;102602.59;5078128;28;20054;-62
2021/03/17 11:50:22;;;;;;;4.47;1.00;;;;;;;6.87;100.00;102607.88;5078505;28;20056;-63